sensor_id;sensor_type;location;lat;lon;timestamp;P1;durP1;ratioP1;P2;durP2;ratioP2
52590;SDS011;38483;42.620;25.394;2023-11-21T00:00:44;7.30;;;3.93;;
52590;SDS011;38483;42.620;25.394;2023-11-21T00:03:12;10.37;;;4.70;;
52590;SDS011;38483;42.620;25.394;2023-11-21T00:05:41;8.60;;;4.57;;
52590;SDS011;38483;42.620;25.394;2023-11-21T00:08:08;10.60;;;4.50;;
52590;SDS011;38483;42.620;25.394;2023-11-21T00:10:36;14.43;;;5.93;;
52590;SDS011;38483;42.620;25.394;2023-11-21T00:13:05;8.53;;;4.90;;
52590;SDS011;38483;42.620;25.394;2023-11-21T00:15:33;12.47;;;5.67;;
52590;SDS011;38483;42.620;25.394;2023-11-21T00:18:00;9.53;;;4.80;;
52590;SDS011;38483;42.620;25.394;2023-11-21T00:20:29;11.27;;;6.00;;
52590;SDS011;38483;42.620;25.394;2023-11-21T00:22:57;11.27;;;5.37;;
52590;SDS011;38483;42.620;25.394;2023-11-21T00:25:26;8.17;;;4.47;;
52590;SDS011;38483;42.620;25.394;2023-11-21T00:27:56;13.27;;;6.13;;
52590;SDS011;38483;42.620;25.394;2023-11-21T00:30:23;16.13;;;7.07;;
52590;SDS011;38483;42.620;25.394;2023-11-21T00:32:50;15.53;;;7.83;;
52590;SDS011;38483;42.620;25.394;2023-11-21T00:35:18;13.83;;;6.37;;
52590;SDS011;38483;42.620;25.394;2023-11-21T00:37:47;17.83;;;7.10;;
52590;SDS011;38483;42.620;25.394;2023-11-21T00:40:16;12.47;;;5.97;;
52590;SDS011;38483;42.620;25.394;2023-11-21T00:42:46;11.67;;;6.07;;
52590;SDS011;38483;42.620;25.394;2023-11-21T00:45:15;13.13;;;6.47;;
52590;SDS011;38483;42.620;25.394;2023-11-21T00:47:42;13.17;;;5.80;;
52590;SDS011;38483;42.620;25.394;2023-11-21T00:50:09;12.97;;;6.40;;
52590;SDS011;38483;42.620;25.394;2023-11-21T00:52:36;10.93;;;5.73;;
52590;SDS011;38483;42.620;25.394;2023-11-21T00:55:04;12.27;;;6.70;;
52590;SDS011;38483;42.620;25.394;2023-11-21T00:57:34;16.00;;;6.10;;
52590;SDS011;38483;42.620;25.394;2023-11-21T01:00:02;13.43;;;6.73;;
52590;SDS011;38483;42.620;25.394;2023-11-21T01:02:34;19.03;;;7.57;;
52590;SDS011;38483;42.620;25.394;2023-11-21T01:05:02;12.43;;;5.67;;
52590;SDS011;38483;42.620;25.394;2023-11-21T01:07:30;14.23;;;6.83;;
52590;SDS011;38483;42.620;25.394;2023-11-21T01:09:57;10.40;;;5.37;;
52590;SDS011;38483;42.620;25.394;2023-11-21T01:12:26;20.00;;;7.20;;
52590;SDS011;38483;42.620;25.394;2023-11-21T01:14:54;15.87;;;6.50;;
52590;SDS011;38483;42.620;25.394;2023-11-21T01:17:21;18.00;;;7.40;;
52590;SDS011;38483;42.620;25.394;2023-11-21T01:19:51;25.00;;;10.13;;
52590;SDS011;38483;42.620;25.394;2023-11-21T01:22:18;16.10;;;6.73;;
52590;SDS011;38483;42.620;25.394;2023-11-21T01:24:49;18.23;;;7.90;;
52590;SDS011;38483;42.620;25.394;2023-11-21T01:27:16;11.30;;;5.37;;
52590;SDS011;38483;42.620;25.394;2023-11-21T01:29:44;18.80;;;7.30;;
52590;SDS011;38483;42.620;25.394;2023-11-21T01:32:12;8.73;;;4.93;;
52590;SDS011;38483;42.620;25.394;2023-11-21T01:34:39;11.87;;;5.40;;
52590;SDS011;38483;42.620;25.394;2023-11-21T01:37:06;8.23;;;4.73;;
52590;SDS011;38483;42.620;25.394;2023-11-21T01:39:33;10.33;;;5.13;;
52590;SDS011;38483;42.620;25.394;2023-11-21T01:42:00;10.80;;;5.50;;
52590;SDS011;38483;42.620;25.394;2023-11-21T01:44:27;10.83;;;4.50;;
52590;SDS011;38483;42.620;25.394;2023-11-21T01:46:55;15.20;;;5.67;;
52590;SDS011;38483;42.620;25.394;2023-11-21T01:49:24;12.03;;;5.07;;
52590;SDS011;38483;42.620;25.394;2023-11-21T01:51:51;12.27;;;5.03;;
52590;SDS011;38483;42.620;25.394;2023-11-21T01:54:18;12.70;;;5.17;;
52590;SDS011;38483;42.620;25.394;2023-11-21T01:56:47;11.93;;;4.50;;
52590;SDS011;38483;42.620;25.394;2023-11-21T01:59:16;14.60;;;5.53;;
52590;SDS011;38483;42.620;25.394;2023-11-21T02:01:47;10.63;;;4.83;;
52590;SDS011;38483;42.620;25.394;2023-11-21T02:04:14;13.20;;;5.60;;
52590;SDS011;38483;42.620;25.394;2023-11-21T02:06:42;14.30;;;5.97;;
52590;SDS011;38483;42.620;25.394;2023-11-21T02:09:09;12.13;;;5.57;;
52590;SDS011;38483;42.620;25.394;2023-11-21T02:11:36;12.93;;;6.27;;
52590;SDS011;38483;42.620;25.394;2023-11-21T02:14:05;12.70;;;4.93;;
52590;SDS011;38483;42.620;25.394;2023-11-21T02:16:36;12.13;;;5.43;;
52590;SDS011;38483;42.620;25.394;2023-11-21T02:19:05;6.30;;;3.77;;
52590;SDS011;38483;42.620;25.394;2023-11-21T02:21:36;9.17;;;4.53;;
52590;SDS011;38483;42.620;25.394;2023-11-21T02:24:07;9.73;;;4.93;;
52590;SDS011;38483;42.620;25.394;2023-11-21T02:26:34;11.70;;;5.50;;
52590;SDS011;38483;42.620;25.394;2023-11-21T02:29:01;8.33;;;4.73;;
52590;SDS011;38483;42.620;25.394;2023-11-21T02:31:31;10.27;;;4.73;;
52590;SDS011;38483;42.620;25.394;2023-11-21T02:34:00;9.10;;;4.87;;
52590;SDS011;38483;42.620;25.394;2023-11-21T02:36:27;9.40;;;4.67;;
52590;SDS011;38483;42.620;25.394;2023-11-21T02:38:54;9.57;;;5.10;;
52590;SDS011;38483;42.620;25.394;2023-11-21T02:41:22;10.10;;;5.57;;
52590;SDS011;38483;42.620;25.394;2023-11-21T02:43:49;13.27;;;6.27;;
52590;SDS011;38483;42.620;25.394;2023-11-21T02:46:16;12.80;;;6.20;;
52590;SDS011;38483;42.620;25.394;2023-11-21T02:48:43;10.77;;;6.03;;
52590;SDS011;38483;42.620;25.394;2023-11-21T02:51:10;13.57;;;7.27;;
52590;SDS011;38483;42.620;25.394;2023-11-21T02:53:39;13.33;;;6.57;;
52590;SDS011;38483;42.620;25.394;2023-11-21T02:56:08;13.53;;;7.37;;
52590;SDS011;38483;42.620;25.394;2023-11-21T02:58:35;14.97;;;7.33;;
52590;SDS011;38483;42.620;25.394;2023-11-21T03:01:03;12.30;;;7.37;;
52590;SDS011;38483;42.620;25.394;2023-11-21T03:03:32;15.03;;;7.33;;
52590;SDS011;38483;42.620;25.394;2023-11-21T03:05:59;9.87;;;6.60;;
52590;SDS011;38483;42.620;25.394;2023-11-21T03:08:26;13.50;;;7.37;;
52590;SDS011;38483;42.620;25.394;2023-11-21T03:10:53;12.10;;;7.93;;
52590;SDS011;38483;42.620;25.394;2023-11-21T03:13:22;14.23;;;8.83;;
52590;SDS011;38483;42.620;25.394;2023-11-21T03:15:49;14.23;;;7.40;;
52590;SDS011;38483;42.620;25.394;2023-11-21T03:18:16;15.07;;;7.97;;
52590;SDS011;38483;42.620;25.394;2023-11-21T03:20:45;11.00;;;6.97;;
52590;SDS011;38483;42.620;25.394;2023-11-21T03:23:13;10.87;;;6.47;;
52590;SDS011;38483;42.620;25.394;2023-11-21T03:25:40;13.93;;;7.17;;
52590;SDS011;38483;42.620;25.394;2023-11-21T03:28:08;7.73;;;5.20;;
52590;SDS011;38483;42.620;25.394;2023-11-21T03:30:35;11.23;;;5.63;;
52590;SDS011;38483;42.620;25.394;2023-11-21T03:33:03;8.97;;;4.83;;
52590;SDS011;38483;42.620;25.394;2023-11-21T03:35:30;12.83;;;5.10;;
52590;SDS011;38483;42.620;25.394;2023-11-21T03:37:57;10.10;;;4.60;;
52590;SDS011;38483;42.620;25.394;2023-11-21T03:40:29;12.67;;;5.43;;
52590;SDS011;38483;42.620;25.394;2023-11-21T03:42:56;15.80;;;6.67;;
52590;SDS011;38483;42.620;25.394;2023-11-21T03:45:23;8.90;;;4.47;;
52590;SDS011;38483;42.620;25.394;2023-11-21T03:47:51;8.57;;;4.63;;
52590;SDS011;38483;42.620;25.394;2023-11-21T03:50:19;8.80;;;4.50;;
52590;SDS011;38483;42.620;25.394;2023-11-21T03:52:46;10.27;;;5.23;;
52590;SDS011;38483;42.620;25.394;2023-11-21T03:55:13;11.07;;;5.70;;
52590;SDS011;38483;42.620;25.394;2023-11-21T03:57:42;14.50;;;5.93;;
52590;SDS011;38483;42.620;25.394;2023-11-21T04:00:09;12.23;;;5.67;;
52590;SDS011;38483;42.620;25.394;2023-11-21T04:02:40;10.50;;;4.30;;
52590;SDS011;38483;42.620;25.394;2023-11-21T04:05:07;10.93;;;5.60;;
52590;SDS011;38483;42.620;25.394;2023-11-21T04:07:35;13.07;;;6.43;;
52590;SDS011;38483;42.620;25.394;2023-11-21T04:10:08;10.93;;;5.37;;
52590;SDS011;38483;42.620;25.394;2023-11-21T04:12:36;9.37;;;5.07;;
52590;SDS011;38483;42.620;25.394;2023-11-21T04:15:03;9.13;;;4.63;;
52590;SDS011;38483;42.620;25.394;2023-11-21T04:17:31;10.13;;;5.03;;
52590;SDS011;38483;42.620;25.394;2023-11-21T04:19:58;10.97;;;6.27;;
52590;SDS011;38483;42.620;25.394;2023-11-21T04:22:25;16.50;;;7.83;;
52590;SDS011;38483;42.620;25.394;2023-11-21T04:24:52;12.47;;;5.67;;
52590;SDS011;38483;42.620;25.394;2023-11-21T04:27:19;16.43;;;7.50;;
52590;SDS011;38483;42.620;25.394;2023-11-21T04:29:46;19.23;;;8.50;;
52590;SDS011;38483;42.620;25.394;2023-11-21T04:32:13;27.10;;;10.07;;
52590;SDS011;38483;42.620;25.394;2023-11-21T04:34:40;16.67;;;7.47;;
52590;SDS011;38483;42.620;25.394;2023-11-21T04:37:07;10.67;;;5.10;;
52590;SDS011;38483;42.620;25.394;2023-11-21T04:39:36;12.43;;;5.37;;
52590;SDS011;38483;42.620;25.394;2023-11-21T04:42:03;14.57;;;6.43;;
52590;SDS011;38483;42.620;25.394;2023-11-21T04:44:31;13.90;;;6.03;;
52590;SDS011;38483;42.620;25.394;2023-11-21T04:46:58;11.80;;;5.27;;
52590;SDS011;38483;42.620;25.394;2023-11-21T04:49:26;11.00;;;4.80;;
52590;SDS011;38483;42.620;25.394;2023-11-21T04:51:53;11.70;;;5.77;;
52590;SDS011;38483;42.620;25.394;2023-11-21T04:54:22;16.37;;;5.63;;
52590;SDS011;38483;42.620;25.394;2023-11-21T04:56:53;21.17;;;7.73;;
52590;SDS011;38483;42.620;25.394;2023-11-21T04:59:20;16.37;;;6.47;;
52590;SDS011;38483;42.620;25.394;2023-11-21T05:01:51;16.03;;;7.30;;
52590;SDS011;38483;42.620;25.394;2023-11-21T05:04:20;16.13;;;7.40;;
52590;SDS011;38483;42.620;25.394;2023-11-21T05:06:49;17.43;;;6.70;;
52590;SDS011;38483;42.620;25.394;2023-11-21T05:09:16;17.07;;;7.87;;
52590;SDS011;38483;42.620;25.394;2023-11-21T05:11:44;18.47;;;8.07;;
52590;SDS011;38483;42.620;25.394;2023-11-21T05:14:12;19.73;;;9.13;;
52590;SDS011;38483;42.620;25.394;2023-11-21T05:16:40;20.40;;;9.30;;
52590;SDS011;38483;42.620;25.394;2023-11-21T05:19:07;20.70;;;8.23;;
52590;SDS011;38483;42.620;25.394;2023-11-21T05:21:36;23.97;;;10.97;;
52590;SDS011;38483;42.620;25.394;2023-11-21T05:24:04;13.20;;;7.40;;
52590;SDS011;38483;42.620;25.394;2023-11-21T05:26:32;20.27;;;7.00;;
52590;SDS011;38483;42.620;25.394;2023-11-21T05:28:59;10.47;;;6.33;;
52590;SDS011;38483;42.620;25.394;2023-11-21T05:31:26;16.63;;;7.27;;
52590;SDS011;38483;42.620;25.394;2023-11-21T05:33:53;10.10;;;5.33;;
52590;SDS011;38483;42.620;25.394;2023-11-21T05:36:20;16.97;;;6.23;;
52590;SDS011;38483;42.620;25.394;2023-11-21T05:38:47;10.73;;;5.50;;
52590;SDS011;38483;42.620;25.394;2023-11-21T05:41:15;17.10;;;7.00;;
52590;SDS011;38483;42.620;25.394;2023-11-21T05:43:42;19.17;;;8.80;;
52590;SDS011;38483;42.620;25.394;2023-11-21T05:46:09;11.30;;;6.37;;
52590;SDS011;38483;42.620;25.394;2023-11-21T05:48:37;14.30;;;6.60;;
52590;SDS011;38483;42.620;25.394;2023-11-21T05:51:05;11.57;;;5.60;;
52590;SDS011;38483;42.620;25.394;2023-11-21T05:53:33;17.43;;;7.00;;
52590;SDS011;38483;42.620;25.394;2023-11-21T05:56:00;20.60;;;8.53;;
52590;SDS011;38483;42.620;25.394;2023-11-21T05:58:27;17.50;;;7.43;;
52590;SDS011;38483;42.620;25.394;2023-11-21T06:00:54;17.13;;;7.60;;
52590;SDS011;38483;42.620;25.394;2023-11-21T06:03:21;24.47;;;10.43;;
52590;SDS011;38483;42.620;25.394;2023-11-21T06:05:49;37.37;;;12.70;;
52590;SDS011;38483;42.620;25.394;2023-11-21T06:08:17;20.70;;;10.10;;
52590;SDS011;38483;42.620;25.394;2023-11-21T06:10:44;22.37;;;10.23;;
52590;SDS011;38483;42.620;25.394;2023-11-21T06:13:11;23.70;;;10.27;;
52590;SDS011;38483;42.620;25.394;2023-11-21T06:15:38;26.43;;;11.17;;
52590;SDS011;38483;42.620;25.394;2023-11-21T06:18:05;26.20;;;11.87;;
52590;SDS011;38483;42.620;25.394;2023-11-21T06:20:40;23.10;;;10.50;;
52590;SDS011;38483;42.620;25.394;2023-11-21T06:23:08;25.40;;;10.00;;
52590;SDS011;38483;42.620;25.394;2023-11-21T06:25:36;15.20;;;8.03;;
52590;SDS011;38483;42.620;25.394;2023-11-21T06:28:03;22.77;;;10.83;;
52590;SDS011;38483;42.620;25.394;2023-11-21T06:30:30;22.00;;;10.80;;
52590;SDS011;38483;42.620;25.394;2023-11-21T06:32:57;28.13;;;12.23;;
52590;SDS011;38483;42.620;25.394;2023-11-21T06:35:26;18.03;;;9.40;;
52590;SDS011;38483;42.620;25.394;2023-11-21T06:37:57;24.53;;;11.70;;
52590;SDS011;38483;42.620;25.394;2023-11-21T06:40:24;29.83;;;12.90;;
52590;SDS011;38483;42.620;25.394;2023-11-21T06:42:51;23.57;;;12.90;;
52590;SDS011;38483;42.620;25.394;2023-11-21T06:45:18;32.63;;;17.10;;
52590;SDS011;38483;42.620;25.394;2023-11-21T06:47:47;25.17;;;12.87;;
52590;SDS011;38483;42.620;25.394;2023-11-21T06:50:15;26.10;;;11.83;;
52590;SDS011;38483;42.620;25.394;2023-11-21T06:52:42;21.00;;;10.10;;
52590;SDS011;38483;42.620;25.394;2023-11-21T06:55:10;21.13;;;10.70;;
52590;SDS011;38483;42.620;25.394;2023-11-21T06:57:37;18.57;;;9.00;;
52590;SDS011;38483;42.620;25.394;2023-11-21T07:00:05;15.37;;;8.33;;
52590;SDS011;38483;42.620;25.394;2023-11-21T07:02:36;25.57;;;12.00;;
52590;SDS011;38483;42.620;25.394;2023-11-21T07:05:04;20.17;;;9.87;;
52590;SDS011;38483;42.620;25.394;2023-11-21T07:07:34;15.20;;;8.33;;
52590;SDS011;38483;42.620;25.394;2023-11-21T07:10:03;24.47;;;10.63;;
52590;SDS011;38483;42.620;25.394;2023-11-21T07:12:32;16.33;;;8.27;;
52590;SDS011;38483;42.620;25.394;2023-11-21T07:15:00;19.27;;;8.97;;
52590;SDS011;38483;42.620;25.394;2023-11-21T07:17:30;18.10;;;9.07;;
52590;SDS011;38483;42.620;25.394;2023-11-21T07:19:59;21.93;;;9.73;;
52590;SDS011;38483;42.620;25.394;2023-11-21T07:22:30;22.23;;;7.40;;
52590;SDS011;38483;42.620;25.394;2023-11-21T07:24:57;20.00;;;8.20;;
52590;SDS011;38483;42.620;25.394;2023-11-21T07:27:28;16.03;;;6.90;;
52590;SDS011;38483;42.620;25.394;2023-11-21T07:29:57;22.30;;;8.90;;
52590;SDS011;38483;42.620;25.394;2023-11-21T07:32:25;23.10;;;8.57;;
52590;SDS011;38483;42.620;25.394;2023-11-21T07:34:53;23.47;;;10.17;;
52590;SDS011;38483;42.620;25.394;2023-11-21T07:37:25;26.90;;;12.33;;
52590;SDS011;38483;42.620;25.394;2023-11-21T07:39:55;20.77;;;6.87;;
52590;SDS011;38483;42.620;25.394;2023-11-21T07:42:25;25.37;;;8.53;;
52590;SDS011;38483;42.620;25.394;2023-11-21T07:44:53;18.30;;;6.90;;
52590;SDS011;38483;42.620;25.394;2023-11-21T07:47:20;19.33;;;6.87;;
52590;SDS011;38483;42.620;25.394;2023-11-21T07:49:50;18.33;;;7.47;;
52590;SDS011;38483;42.620;25.394;2023-11-21T07:52:17;13.00;;;5.83;;
52590;SDS011;38483;42.620;25.394;2023-11-21T07:54:47;20.80;;;8.30;;
52590;SDS011;38483;42.620;25.394;2023-11-21T07:57:15;17.43;;;7.17;;
52590;SDS011;38483;42.620;25.394;2023-11-21T07:59:44;21.13;;;8.53;;
52590;SDS011;38483;42.620;25.394;2023-11-21T08:02:11;16.47;;;6.67;;
52590;SDS011;38483;42.620;25.394;2023-11-21T08:04:39;19.13;;;6.70;;
52590;SDS011;38483;42.620;25.394;2023-11-21T08:07:06;15.83;;;6.47;;
52590;SDS011;38483;42.620;25.394;2023-11-21T08:09:33;16.27;;;6.93;;
52590;SDS011;38483;42.620;25.394;2023-11-21T08:12:01;16.30;;;6.43;;
52590;SDS011;38483;42.620;25.394;2023-11-21T08:14:29;14.47;;;6.30;;
52590;SDS011;38483;42.620;25.394;2023-11-21T08:16:56;15.37;;;6.87;;
52590;SDS011;38483;42.620;25.394;2023-11-21T08:19:25;23.33;;;8.77;;
52590;SDS011;38483;42.620;25.394;2023-11-21T08:21:54;15.57;;;7.07;;
52590;SDS011;38483;42.620;25.394;2023-11-21T08:24:22;19.17;;;7.53;;
52590;SDS011;38483;42.620;25.394;2023-11-21T08:26:49;14.37;;;6.47;;
52590;SDS011;38483;42.620;25.394;2023-11-21T08:29:18;19.97;;;8.57;;
52590;SDS011;38483;42.620;25.394;2023-11-21T08:31:45;17.73;;;7.17;;
52590;SDS011;38483;42.620;25.394;2023-11-21T08:34:13;22.17;;;8.67;;
52590;SDS011;38483;42.620;25.394;2023-11-21T08:36:42;23.33;;;8.17;;
52590;SDS011;38483;42.620;25.394;2023-11-21T08:39:10;21.10;;;7.57;;
52590;SDS011;38483;42.620;25.394;2023-11-21T08:41:38;21.50;;;8.83;;
52590;SDS011;38483;42.620;25.394;2023-11-21T08:44:07;21.13;;;8.43;;
52590;SDS011;38483;42.620;25.394;2023-11-21T08:46:36;19.80;;;7.57;;
52590;SDS011;38483;42.620;25.394;2023-11-21T08:49:06;21.40;;;8.90;;
52590;SDS011;38483;42.620;25.394;2023-11-21T08:51:34;21.90;;;9.63;;
52590;SDS011;38483;42.620;25.394;2023-11-21T08:54:01;22.73;;;10.03;;
52590;SDS011;38483;42.620;25.394;2023-11-21T08:56:31;19.37;;;8.47;;
52590;SDS011;38483;42.620;25.394;2023-11-21T08:58:59;24.07;;;9.53;;
52590;SDS011;38483;42.620;25.394;2023-11-21T09:01:31;19.70;;;8.17;;
52590;SDS011;38483;42.620;25.394;2023-11-21T09:03:59;20.10;;;9.13;;
52590;SDS011;38483;42.620;25.394;2023-11-21T09:06:26;23.90;;;10.10;;
52590;SDS011;38483;42.620;25.394;2023-11-21T09:08:54;21.77;;;9.90;;
52590;SDS011;38483;42.620;25.394;2023-11-21T09:11:22;19.80;;;9.10;;
52590;SDS011;38483;42.620;25.394;2023-11-21T09:13:52;21.00;;;8.40;;
52590;SDS011;38483;42.620;25.394;2023-11-21T09:16:20;17.97;;;7.47;;
52590;SDS011;38483;42.620;25.394;2023-11-21T09:18:47;18.43;;;8.77;;
52590;SDS011;38483;42.620;25.394;2023-11-21T09:21:14;20.43;;;8.27;;
52590;SDS011;38483;42.620;25.394;2023-11-21T09:23:43;18.70;;;7.63;;
52590;SDS011;38483;42.620;25.394;2023-11-21T09:26:12;16.57;;;7.70;;
52590;SDS011;38483;42.620;25.394;2023-11-21T09:28:45;18.83;;;7.37;;
52590;SDS011;38483;42.620;25.394;2023-11-21T09:31:13;13.70;;;6.20;;
52590;SDS011;38483;42.620;25.394;2023-11-21T09:33:44;13.43;;;6.40;;
52590;SDS011;38483;42.620;25.394;2023-11-21T09:36:12;17.07;;;7.70;;
52590;SDS011;38483;42.620;25.394;2023-11-21T09:38:43;20.27;;;8.83;;
52590;SDS011;38483;42.620;25.394;2023-11-21T09:41:13;20.90;;;9.23;;
52590;SDS011;38483;42.620;25.394;2023-11-21T09:43:47;12.87;;;7.33;;
52590;SDS011;38483;42.620;25.394;2023-11-21T09:46:19;14.80;;;7.77;;
52590;SDS011;38483;42.620;25.394;2023-11-21T09:48:50;12.70;;;5.83;;
52590;SDS011;38483;42.620;25.394;2023-11-21T09:51:20;14.60;;;7.87;;
52590;SDS011;38483;42.620;25.394;2023-11-21T09:53:54;13.60;;;7.17;;
52590;SDS011;38483;42.620;25.394;2023-11-21T09:56:25;15.43;;;7.67;;
52590;SDS011;38483;42.620;25.394;2023-11-21T09:58:56;15.07;;;6.63;;
52590;SDS011;38483;42.620;25.394;2023-11-21T10:01:25;17.97;;;7.43;;
52590;SDS011;38483;42.620;25.394;2023-11-21T10:03:56;10.53;;;6.17;;
52590;SDS011;38483;42.620;25.394;2023-11-21T10:06:23;11.43;;;6.23;;
52590;SDS011;38483;42.620;25.394;2023-11-21T10:08:53;14.03;;;6.57;;
52590;SDS011;38483;42.620;25.394;2023-11-21T10:11:26;17.23;;;7.10;;
52590;SDS011;38483;42.620;25.394;2023-11-21T10:13:57;14.67;;;6.53;;
52590;SDS011;38483;42.620;25.394;2023-11-21T10:16:28;16.57;;;7.43;;
52590;SDS011;38483;42.620;25.394;2023-11-21T10:18:59;11.30;;;5.97;;
52590;SDS011;38483;42.620;25.394;2023-11-21T10:21:38;16.20;;;7.73;;
52590;SDS011;38483;42.620;25.394;2023-11-21T10:24:06;10.90;;;5.97;;
52590;SDS011;38483;42.620;25.394;2023-11-21T10:26:34;19.93;;;8.03;;
52590;SDS011;38483;42.620;25.394;2023-11-21T10:29:19;12.10;;;6.47;;
52590;SDS011;38483;42.620;25.394;2023-11-21T10:31:49;9.10;;;4.80;;
52590;SDS011;38483;42.620;25.394;2023-11-21T10:34:18;14.30;;;6.40;;
52590;SDS011;38483;42.620;25.394;2023-11-21T10:36:47;9.30;;;4.50;;
52590;SDS011;38483;42.620;25.394;2023-11-21T10:39:17;10.13;;;4.63;;
52590;SDS011;38483;42.620;25.394;2023-11-21T10:41:46;12.60;;;5.63;;
52590;SDS011;38483;42.620;25.394;2023-11-21T10:44:15;15.57;;;5.77;;
52590;SDS011;38483;42.620;25.394;2023-11-21T10:46:48;9.50;;;4.53;;
52590;SDS011;38483;42.620;25.394;2023-11-21T10:49:24;12.90;;;5.63;;
52590;SDS011;38483;42.620;25.394;2023-11-21T10:51:53;16.07;;;6.13;;
52590;SDS011;38483;42.620;25.394;2023-11-21T10:54:21;16.37;;;6.67;;
52590;SDS011;38483;42.620;25.394;2023-11-21T10:56:50;13.07;;;5.63;;
52590;SDS011;38483;42.620;25.394;2023-11-21T10:59:29;11.47;;;5.40;;
52590;SDS011;38483;42.620;25.394;2023-11-21T11:01:58;7.90;;;4.37;;
52590;SDS011;38483;42.620;25.394;2023-11-21T11:04:28;12.37;;;5.53;;
52590;SDS011;38483;42.620;25.394;2023-11-21T11:07:03;13.73;;;5.40;;
52590;SDS011;38483;42.620;25.394;2023-11-21T11:09:36;10.27;;;4.77;;
52590;SDS011;38483;42.620;25.394;2023-11-21T11:12:04;11.47;;;5.03;;
52590;SDS011;38483;42.620;25.394;2023-11-21T11:14:32;11.70;;;5.03;;
52590;SDS011;38483;42.620;25.394;2023-11-21T11:17:01;12.80;;;5.23;;
52590;SDS011;38483;42.620;25.394;2023-11-21T11:19:29;9.77;;;4.37;;
52590;SDS011;38483;42.620;25.394;2023-11-21T11:25:25;14.90;;;5.67;;
52590;SDS011;38483;42.620;25.394;2023-11-21T11:28:10;11.13;;;4.63;;
52590;SDS011;38483;42.620;25.394;2023-11-21T11:33:21;13.17;;;5.70;;
52590;SDS011;38483;42.620;25.394;2023-11-21T11:36:06;11.13;;;4.70;;
52590;SDS011;38483;42.620;25.394;2023-11-21T11:38:44;15.13;;;5.70;;
52590;SDS011;38483;42.620;25.394;2023-11-21T11:41:30;9.60;;;4.03;;
52590;SDS011;38483;42.620;25.394;2023-11-21T11:44:01;14.40;;;5.40;;
52590;SDS011;38483;42.620;25.394;2023-11-21T11:49:24;10.73;;;5.00;;
52590;SDS011;38483;42.620;25.394;2023-11-21T11:55:15;18.83;;;6.00;;
52590;SDS011;38483;42.620;25.394;2023-11-21T11:57:55;12.13;;;5.10;;
52590;SDS011;38483;42.620;25.394;2023-11-21T12:02:59;13.00;;;4.43;;
52590;SDS011;38483;42.620;25.394;2023-11-21T12:05:32;14.03;;;6.07;;
52590;SDS011;38483;42.620;25.394;2023-11-21T12:08:03;12.77;;;5.93;;
52590;SDS011;38483;42.620;25.394;2023-11-21T12:10:31;12.73;;;4.93;;
52590;SDS011;38483;42.620;25.394;2023-11-21T12:15:30;7.60;;;3.97;;
52590;SDS011;38483;42.620;25.394;2023-11-21T12:17:58;15.50;;;6.07;;
52590;SDS011;38483;42.620;25.394;2023-11-21T12:20:28;13.57;;;4.63;;
52590;SDS011;38483;42.620;25.394;2023-11-21T12:22:56;17.23;;;7.37;;
52590;SDS011;38483;42.620;25.394;2023-11-21T12:25:28;13.10;;;6.33;;
52590;SDS011;38483;42.620;25.394;2023-11-21T12:27:58;14.27;;;6.53;;
52590;SDS011;38483;42.620;25.394;2023-11-21T12:30:27;19.03;;;8.43;;
52590;SDS011;38483;42.620;25.394;2023-11-21T12:32:58;15.20;;;6.37;;
52590;SDS011;38483;42.620;25.394;2023-11-21T12:35:30;14.63;;;6.50;;
52590;SDS011;38483;42.620;25.394;2023-11-21T12:38:02;20.23;;;7.37;;
52590;SDS011;38483;42.620;25.394;2023-11-21T12:40:32;15.17;;;7.23;;
52590;SDS011;38483;42.620;25.394;2023-11-21T12:43:00;16.63;;;6.90;;
52590;SDS011;38483;42.620;25.394;2023-11-21T12:45:29;14.67;;;6.67;;
52590;SDS011;38483;42.620;25.394;2023-11-21T12:48:01;14.67;;;6.57;;
52590;SDS011;38483;42.620;25.394;2023-11-21T12:50:36;15.40;;;6.03;;
52590;SDS011;38483;42.620;25.394;2023-11-21T12:53:11;15.97;;;7.03;;
52590;SDS011;38483;42.620;25.394;2023-11-21T12:55:40;15.30;;;6.93;;
52590;SDS011;38483;42.620;25.394;2023-11-21T12:58:09;13.17;;;6.40;;
52590;SDS011;38483;42.620;25.394;2023-11-21T13:00:39;13.97;;;6.60;;
52590;SDS011;38483;42.620;25.394;2023-11-21T13:03:10;13.00;;;6.27;;
52590;SDS011;38483;42.620;25.394;2023-11-21T13:05:48;18.23;;;7.43;;
52590;SDS011;38483;42.620;25.394;2023-11-21T13:08:20;14.03;;;5.97;;
52590;SDS011;38483;42.620;25.394;2023-11-21T13:10:53;16.10;;;6.63;;
52590;SDS011;38483;42.620;25.394;2023-11-21T13:13:25;16.90;;;7.60;;
52590;SDS011;38483;42.620;25.394;2023-11-21T13:15:56;12.83;;;6.30;;
52590;SDS011;38483;42.620;25.394;2023-11-21T13:18:27;14.87;;;7.00;;
52590;SDS011;38483;42.620;25.394;2023-11-21T13:20:56;14.57;;;6.57;;
52590;SDS011;38483;42.620;25.394;2023-11-21T13:23:26;15.03;;;7.50;;
52590;SDS011;38483;42.620;25.394;2023-11-21T13:25:53;16.40;;;7.23;;
52590;SDS011;38483;42.620;25.394;2023-11-21T13:28:31;13.87;;;6.73;;
52590;SDS011;38483;42.620;25.394;2023-11-21T13:31:04;17.10;;;7.53;;
52590;SDS011;38483;42.620;25.394;2023-11-21T13:33:49;17.10;;;6.60;;
52590;SDS011;38483;42.620;25.394;2023-11-21T13:36:23;14.80;;;6.60;;
52590;SDS011;38483;42.620;25.394;2023-11-21T13:38:52;13.40;;;6.30;;
52590;SDS011;38483;42.620;25.394;2023-11-21T13:41:20;13.93;;;7.43;;
52590;SDS011;38483;42.620;25.394;2023-11-21T13:43:56;17.73;;;9.30;;
52590;SDS011;38483;42.620;25.394;2023-11-21T13:46:43;23.10;;;11.07;;
52590;SDS011;38483;42.620;25.394;2023-11-21T13:49:10;20.07;;;10.57;;
52590;SDS011;38483;42.620;25.394;2023-11-21T13:51:38;21.13;;;10.53;;
52590;SDS011;38483;42.620;25.394;2023-11-21T13:54:12;18.63;;;9.03;;
52590;SDS011;38483;42.620;25.394;2023-11-21T13:56:40;16.07;;;8.57;;
52590;SDS011;38483;42.620;25.394;2023-11-21T13:59:12;15.83;;;7.37;;
52590;SDS011;38483;42.620;25.394;2023-11-21T14:01:50;18.23;;;8.90;;
52590;SDS011;38483;42.620;25.394;2023-11-21T14:04:21;14.50;;;7.87;;
52590;SDS011;38483;42.620;25.394;2023-11-21T14:06:58;16.60;;;8.50;;
52590;SDS011;38483;42.620;25.394;2023-11-21T14:09:29;17.87;;;8.60;;
52590;SDS011;38483;42.620;25.394;2023-11-21T14:12:10;18.73;;;8.77;;
52590;SDS011;38483;42.620;25.394;2023-11-21T14:14:40;17.80;;;8.93;;
52590;SDS011;38483;42.620;25.394;2023-11-21T14:17:07;14.83;;;8.20;;
52590;SDS011;38483;42.620;25.394;2023-11-21T14:19:36;13.00;;;7.47;;
52590;SDS011;38483;42.620;25.394;2023-11-21T14:22:10;25.13;;;10.43;;
52590;SDS011;38483;42.620;25.394;2023-11-21T14:24:37;22.90;;;10.03;;
52590;SDS011;38483;42.620;25.394;2023-11-21T14:27:11;15.03;;;9.17;;
52590;SDS011;38483;42.620;25.394;2023-11-21T14:29:39;15.27;;;8.63;;
52590;SDS011;38483;42.620;25.394;2023-11-21T14:32:10;18.40;;;9.43;;
52590;SDS011;38483;42.620;25.394;2023-11-21T14:34:38;23.33;;;8.83;;
52590;SDS011;38483;42.620;25.394;2023-11-21T14:37:05;16.30;;;9.17;;
52590;SDS011;38483;42.620;25.394;2023-11-21T14:39:33;15.93;;;8.00;;
52590;SDS011;38483;42.620;25.394;2023-11-21T14:42:05;15.83;;;8.57;;
52590;SDS011;38483;42.620;25.394;2023-11-21T14:44:36;17.00;;;9.00;;
52590;SDS011;38483;42.620;25.394;2023-11-21T14:47:10;17.70;;;9.73;;
52590;SDS011;38483;42.620;25.394;2023-11-21T14:49:46;19.20;;;10.03;;